Time;durP1;ratioP1;P1;durP2;ratioP2;P2;SDS_P1;SDS_P2;PMS_P1;PMS_P2;Temp;Humidity;BMP_temperature;BMP_pressure;BME280_temperature;BME280_humidity;BME280_pressure;Samples;Min_cycle;Max_cycle;Signal;HPM_P1;HPM_P2
2022/04/02 00:02:23;;;;;;;;;;;7.40;91.80;;;;;;5096490;28;19915;-90
2022/04/02 00:04:48;;;;;;;;;;;7.50;91.70;;;;;;5096521;28;20286;-90
2022/04/02 00:07:14;;;;;;;;;;;7.50;91.40;;;;;;5096531;28;19912;-90
2022/04/02 00:09:40;;;;;;;;;;;7.40;90.90;;;;;;5096451;28;19908;-90
2022/04/02 00:12:07;;;;;;;;;;;7.20;91.00;;;;;;5096409;28;20426;-90
2022/04/02 00:14:32;;;;;;;;;;;7.20;91.30;;;;;;5096354;28;19908;-90
2022/04/02 00:16:58;;;;;;;;;;;7.10;91.60;;;;;;5096348;28;19915;-90
2022/04/02 00:19:23;;;;;;;;;;;7.10;91.60;;;;;;5096302;28;19935;-90
2022/04/02 00:21:49;;;;;;;;;;;7.10;91.60;;;;;;5096251;28;19908;-90
2022/04/02 00:24:14;;;;;;;;;;;7.10;91.70;;;;;;5096175;28;20369;-90
2022/04/02 00:26:40;;;;;;;;;;;7.10;91.40;;;;;;5077011;28;19923;-90
2022/04/02 00:29:08;;;;;;;;;;;7.10;91.30;;;;;;5075752;28;19918;-90
2022/04/02 00:31:33;;;;;;;;;;;7.10;91.20;;;;;;5075594;28;19912;-90
2022/04/02 00:33:59;;;;;;;;;;;7.20;91.30;;;;;;5075796;28;19909;-91
2022/04/02 00:36:24;;;;;;;;;;;7.30;91.70;;;;;;5075803;28;19914;-90
2022/04/02 00:38:50;;;;;;;;;;;7.40;91.70;;;;;;5075681;28;19959;-90
2022/04/02 00:41:16;;;;;;;;;;;7.50;91.50;;;;;;5075581;28;20385;-90
2022/04/02 00:43:54;;;;;;;;;;;7.50;91.40;;;;;;5075601;28;19909;-90
2022/04/02 00:46:20;;;;;;;;;;;7.50;91.30;;;;;;5075563;28;19912;-90
2022/04/02 00:48:45;;;;;;;;;;;7.50;91.00;;;;;;5075435;28;20324;-90
2022/04/02 00:51:12;;;;;;;;;;;7.50;90.70;;;;;;5075555;28;19969;-90
2022/04/02 00:53:39;;;;;;;;;;;7.50;90.70;;;;;;5075432;28;19958;-90
2022/04/02 00:56:05;;;;;;;;;;;7.50;91.10;;;;;;5075653;28;20379;-90
2022/04/02 00:58:31;;;;;;;;;;;7.50;91.30;;;;;;5075338;28;19951;-90
2022/04/02 01:00:57;;;;;;;;;;;7.60;91.50;;;;;;5075259;28;20391;-90
2022/04/02 01:03:23;;;;;;;;;;;7.70;91.20;;;;;;5075237;28;19915;-90
2022/04/02 01:05:49;;;;;;;;;;;7.50;91.10;;;;;;5075209;28;19947;-90
2022/04/02 01:08:15;;;;;;;;;;;7.40;91.30;;;;;;5075027;28;19955;-90
2022/04/02 01:10:40;;;;;;;;;;;7.40;91.80;;;;;;5074872;28;19973;-90
2022/04/02 01:13:07;;;;;;;;;;;7.30;92.20;;;;;;5075637;28;19909;-90
2022/04/02 01:15:32;;;;;;;;;;;7.40;92.50;;;;;;5073687;28;19920;-90
2022/04/02 01:17:58;;;;;;;;;;;7.40;92.70;;;;;;5073632;28;19909;-90
2022/04/02 01:20:24;;;;;;;;;;;7.50;92.50;;;;;;5074910;28;19912;-90
2022/04/02 01:22:50;;;;;;;;;;;7.50;92.30;;;;;;5074840;28;19999;-90
2022/04/02 01:25:15;;;;;;;;;;;7.60;92.20;;;;;;5081401;28;19961;-90
2022/04/02 01:27:42;;;;;;;;;;;7.50;91.70;;;;;;5094938;28;19912;-90
2022/04/02 01:30:08;;;;;;;;;;;7.50;91.40;;;;;;5094489;28;19912;-90
2022/04/02 01:32:33;;;;;;;;;;;7.50;91.10;;;;;;5094742;28;20007;-90
2022/04/02 01:34:59;;;;;;;;;;;7.50;90.80;;;;;;5094865;28;20350;-90
2022/04/02 01:37:25;;;;;;;;;;;7.50;91.00;;;;;;5094734;28;19908;-91
2022/04/02 01:39:50;;;;;;;;;;;7.50;91.00;;;;;;5094764;28;20259;-91
2022/04/02 01:42:20;;;;;;;;;;;7.50;90.90;;;;;;5094699;28;19915;-90
2022/04/02 01:44:51;;;;;;;;;;;7.60;91.20;;;;;;5093259;28;19915;-91
2022/04/02 01:47:19;;;;;;;;;;;7.60;91.40;;;;;;5094502;28;20016;-91
2022/04/02 01:49:44;;;;;;;;;;;7.70;91.30;;;;;;5094794;28;19982;-90
2022/04/02 01:52:11;;;;;;;;;;;7.70;90.80;;;;;;5093234;28;19947;-91
2022/04/02 01:54:36;;;;;;;;;;;7.60;90.70;;;;;;5093130;28;19908;-91
2022/04/02 01:57:02;;;;;;;;;;;7.70;90.80;;;;;;5074081;28;19912;-91
2022/04/02 01:59:27;;;;;;;;;;;7.70;91.00;;;;;;5074035;28;19909;-90
2022/04/02 02:01:53;;;;;;;;;;;7.70;90.80;;;;;;5074024;28;19909;-90
2022/04/02 02:04:18;;;;;;;;;;;7.60;90.40;;;;;;5074005;28;19962;-91
2022/04/02 02:06:45;;;;;;;;;;;7.70;90.00;;;;;;5074000;28;19912;-91
2022/04/02 02:09:10;;;;;;;;;;;7.70;89.20;;;;;;5074148;28;19948;-91
2022/04/02 02:11:36;;;;;;;;;;;7.80;88.60;;;;;;5072309;28;20365;-90
2022/04/02 02:14:02;;;;;;;;;;;7.80;87.40;;;;;;5073861;28;19912;-90
2022/04/02 02:16:27;;;;;;;;;;;7.80;85.60;;;;;;5082022;28;19918;-90
2022/04/02 02:18:53;;;;;;;;;;;7.90;85.20;;;;;;5094332;28;19915;-90
2022/04/02 02:21:18;;;;;;;;;;;7.90;84.60;;;;;;5093494;28;19969;-90
2022/04/02 02:23:44;;;;;;;;;;;7.90;84.10;;;;;;5093893;28;19912;-91
2022/04/02 02:26:09;;;;;;;;;;;7.90;84.20;;;;;;5093070;28;19912;-91
2022/04/02 02:28:35;;;;;;;;;;;7.90;84.40;;;;;;5093859;28;20325;-90
2022/04/02 02:31:01;;;;;;;;;;;7.90;83.20;;;;;;5093760;28;20404;-90
2022/04/02 02:36:10;;;;;;;;;;;7.90;82.40;;;;;;5073968;28;20270;-91
2022/04/02 02:38:36;;;;;;;;;;;7.90;79.30;;;;;;5073441;28;20376;-90
2022/04/02 02:41:03;;;;;;;;;;;8.00;80.00;;;;;;5073460;28;20005;-90
2022/04/02 02:43:28;;;;;;;;;;;8.00;81.20;;;;;;5073404;28;19916;-90
2022/04/02 02:45:54;;;;;;;;;;;8.00;81.20;;;;;;5079652;28;19916;-90
2022/04/02 02:48:20;;;;;;;;;;;8.00;81.50;;;;;;5093537;28;19908;-90
2022/04/02 02:50:45;;;;;;;;;;;7.90;82.10;;;;;;5093777;28;19919;-90
2022/04/02 02:53:11;;;;;;;;;;;7.90;83.00;;;;;;5093592;28;19916;-90
2022/04/02 02:55:37;;;;;;;;;;;7.80;83.20;;;;;;5093464;28;19912;-90
2022/04/02 02:58:02;;;;;;;;;;;7.70;82.30;;;;;;5093754;28;20322;-89
2022/04/02 03:00:28;;;;;;;;;;;7.80;82.30;;;;;;5092127;28;20258;-90
2022/04/02 03:02:54;;;;;;;;;;;7.70;81.40;;;;;;5093422;28;19912;-91
2022/04/02 03:05:19;;;;;;;;;;;7.70;80.40;;;;;;5093658;28;19908;-90
2022/04/02 03:07:49;;;;;;;;;;;7.70;80.60;;;;;;5093349;28;19908;-90
2022/04/02 03:10:18;;;;;;;;;;;7.70;80.70;;;;;;5100551;22;20046;-90
2022/04/02 03:12:44;;;;;;;;;;;7.70;80.90;;;;;;5093326;28;19951;-90
2022/04/02 03:15:10;;;;;;;;;;;7.70;80.50;;;;;;5092650;28;19908;-90
2022/04/02 03:17:36;;;;;;;;;;;7.60;81.40;;;;;;5073038;28;19958;-90
2022/04/02 03:20:02;;;;;;;;;;;7.60;81.70;;;;;;5073023;28;19909;-90
2022/04/02 03:22:27;;;;;;;;;;;7.60;80.50;;;;;;5073006;28;20023;-90
2022/04/02 03:24:56;;;;;;;;;;;7.60;80.00;;;;;;5072941;28;19909;-90
2022/04/02 03:27:21;;;;;;;;;;;7.60;80.40;;;;;;5072992;28;19908;-90
2022/04/02 03:29:47;;;;;;;;;;;7.60;80.00;;;;;;5073140;28;20358;-90
2022/04/02 03:32:13;;;;;;;;;;;7.60;79.20;;;;;;5074273;28;20330;-90
2022/04/02 03:34:39;;;;;;;;;;;7.60;79.10;;;;;;5076934;28;19909;-90
2022/04/02 03:37:05;;;;;;;;;;;7.60;79.20;;;;;;5083008;28;20007;-90
2022/04/02 03:39:30;;;;;;;;;;;7.50;79.70;;;;;;5097112;28;19987;-90
2022/04/02 03:41:56;;;;;;;;;;;7.60;77.80;;;;;;5097146;28;20373;-90
2022/04/02 03:44:22;;;;;;;;;;;7.50;78.70;;;;;;5097066;28;20285;-90
2022/04/02 03:49:31;;;;;;;;;;;7.50;78.00;;;;;;5096990;28;19915;-90
2022/04/02 03:51:57;;;;;;;;;;;7.50;78.10;;;;;;5096731;28;20010;-90
2022/04/02 03:54:22;;;;;;;;;;;7.40;78.80;;;;;;5096883;28;19909;-90
2022/04/02 03:56:48;;;;;;;;;;;7.40;78.60;;;;;;5095443;28;19916;-90
2022/04/02 03:59:14;;;;;;;;;;;7.40;79.40;;;;;;5095474;28;19912;-90
2022/04/02 04:01:39;;;;;;;;;;;7.30;78.50;;;;;;5096771;28;19915;-90
2022/04/02 04:04:05;;;;;;;;;;;7.30;79.40;;;;;;5096708;28;19908;-90
2022/04/02 04:06:34;;;;;;;;;;;7.20;79.30;;;;;;5093909;28;19920;-90
2022/04/02 04:09:00;;;;;;;;;;;7.20;79.90;;;;;;5076168;28;19908;-90
2022/04/02 04:11:26;;;;;;;;;;;7.20;80.00;;;;;;5076079;28;19927;-91
2022/04/02 04:13:52;;;;;;;;;;;7.10;80.10;;;;;;5074928;28;20366;-90
2022/04/02 04:16:17;;;;;;;;;;;7.10;80.30;;;;;;5076246;28;19909;-92
2022/04/02 04:18:43;;;;;;;;;;;7.10;80.70;;;;;;5076123;28;19974;-91
2022/04/02 04:21:08;;;;;;;;;;;7.10;80.90;;;;;;5076090;28;20451;-91
2022/04/02 04:23:34;;;;;;;;;;;7.00;81.20;;;;;;5076052;28;20267;-91
2022/04/02 04:26:00;;;;;;;;;;;7.00;81.30;;;;;;5076245;28;19908;-91
2022/04/02 04:28:26;;;;;;;;;;;7.00;81.20;;;;;;5076057;28;20007;-91
2022/04/02 04:30:51;;;;;;;;;;;7.00;81.40;;;;;;5075732;28;20437;-91
2022/04/02 04:33:17;;;;;;;;;;;6.90;81.50;;;;;;5075804;28;19909;-90
2022/04/02 04:35:42;;;;;;;;;;;6.90;81.40;;;;;;5080690;28;19958;-90
2022/04/02 04:38:08;;;;;;;;;;;7.00;81.40;;;;;;5095731;28;19912;-90
2022/04/02 04:40:33;;;;;;;;;;;7.00;81.40;;;;;;5095812;28;20006;-90
2022/04/02 04:42:59;;;;;;;;;;;7.00;81.50;;;;;;5095489;28;19916;-90
2022/04/02 04:45:25;;;;;;;;;;;7.00;81.80;;;;;;5095923;28;19918;-90
2022/04/02 04:47:50;;;;;;;;;;;6.90;82.20;;;;;;5095842;28;19916;-90
2022/04/02 04:50:16;;;;;;;;;;;6.90;82.80;;;;;;5095756;28;20169;-90
2022/04/02 04:52:41;;;;;;;;;;;6.90;83.30;;;;;;5096020;28;19908;-89
2022/04/02 04:55:07;;;;;;;;;;;6.90;84.60;;;;;;5086123;28;19927;-90
2022/04/02 04:57:32;;;;;;;;;;;6.90;85.00;;;;;;5087095;28;19908;-89
2022/04/02 04:59:58;;;;;;;;;;;6.90;85.10;;;;;;5085213;28;19951;-89
2022/04/02 05:02:24;;;;;;;;;;;6.90;86.20;;;;;;5083266;28;20273;-89
2022/04/02 05:04:50;;;;;;;;;;;6.80;85.00;;;;;;5083253;28;19908;-89
2022/04/02 05:07:18;;;;;;;;;;;6.80;85.50;;;;;;5081368;28;19912;-89
2022/04/02 05:09:45;;;;;;;;;;;6.80;87.30;;;;;;5095447;28;19941;-89
2022/04/02 05:12:11;;;;;;;;;;;6.70;87.00;;;;;;5095105;28;19919;-89
2022/04/02 05:14:37;;;;;;;;;;;6.70;87.30;;;;;;5094744;28;20316;-89
2022/04/02 05:17:03;;;;;;;;;;;6.80;86.90;;;;;;5092942;28;19960;-89
2022/04/02 05:19:28;;;;;;;;;;;6.80;85.60;;;;;;5095155;28;19931;-89
2022/04/02 05:21:54;;;;;;;;;;;6.90;85.20;;;;;;5095176;28;19913;-89
2022/04/02 05:24:19;;;;;;;;;;;6.90;84.10;;;;;;5094746;28;19912;-89
2022/04/02 05:26:47;;;;;;;;;;;7.00;84.70;;;;;;5095005;28;20262;-89
2022/04/02 05:29:13;;;;;;;;;;;6.90;84.00;;;;;;5087077;28;19912;-89
2022/04/02 05:31:41;;;;;;;;;;;6.90;84.30;;;;;;5089522;28;19916;-89
2022/04/02 05:38:44;;;;;;;;;;;6.90;83.60;;;;;;5100306;27;19923;-89
2022/04/02 05:41:10;;;;;;;;;;;7.00;85.60;;;;;;5092500;28;19916;-88
2022/04/02 05:43:35;;;;;;;;;;;6.90;85.20;;;;;;5089775;28;19912;-89
2022/04/02 05:46:01;;;;;;;;;;;6.90;83.50;;;;;;5090202;28;20353;-89
2022/04/02 05:48:28;;;;;;;;;;;6.90;83.70;;;;;;5089753;28;19912;-89
2022/04/02 05:50:53;;;;;;;;;;;6.90;84.40;;;;;;5086852;28;19928;-89
2022/04/02 05:53:19;;;;;;;;;;;6.90;85.90;;;;;;5089849;28;19908;-89
2022/04/02 05:55:46;;;;;;;;;;;7.00;86.60;;;;;;5086819;28;19923;-89
2022/04/02 05:58:12;;;;;;;;;;;7.10;86.80;;;;;;5089992;28;20270;-89
2022/04/02 06:00:37;;;;;;;;;;;7.10;83.90;;;;;;5086422;28;19931;-89
2022/04/02 06:03:03;;;;;;;;;;;7.10;85.20;;;;;;5093106;28;19913;-88
2022/04/02 06:05:29;;;;;;;;;;;7.10;85.10;;;;;;5089344;28;19916;-89
2022/04/02 06:07:55;;;;;;;;;;;7.10;85.10;;;;;;5089153;28;19913;-89
2022/04/02 06:10:20;;;;;;;;;;;7.00;84.60;;;;;;5091754;28;19913;-89
2022/04/02 06:12:47;;;;;;;;;;;7.00;84.70;;;;;;5087377;28;19912;-89
2022/04/02 06:15:12;;;;;;;;;;;7.00;84.50;;;;;;5088540;28;19919;-88
2022/04/02 06:17:38;;;;;;;;;;;7.10;83.60;;;;;;5088553;28;19913;-89
2022/04/02 06:20:07;;;;;;;;;;;7.20;83.80;;;;;;5083821;28;19921;-88
2022/04/02 06:22:33;;;;;;;;;;;7.20;83.80;;;;;;5084619;28;19934;-89
2022/04/02 06:24:59;;;;;;;;;;;7.30;83.30;;;;;;5087634;28;19959;-89
2022/04/02 06:27:24;;;;;;;;;;;7.40;82.90;;;;;;5085433;28;20318;-89
2022/04/02 06:29:50;;;;;;;;;;;7.40;82.80;;;;;;5087297;28;19912;-89
2022/04/02 06:32:15;;;;;;;;;;;7.50;82.60;;;;;;5086646;28;19935;-89
2022/04/02 06:34:41;;;;;;;;;;;7.50;81.50;;;;;;5094736;28;19943;-89
2022/04/02 06:37:06;;;;;;;;;;;7.60;80.90;;;;;;5085864;28;19931;-89
2022/04/02 06:39:32;;;;;;;;;;;7.60;79.80;;;;;;5088497;28;19942;-89
2022/04/02 06:41:58;;;;;;;;;;;7.60;80.50;;;;;;5085398;28;20015;-89
2022/04/02 06:44:23;;;;;;;;;;;7.60;80.40;;;;;;5088170;28;19913;-88
2022/04/02 06:46:49;;;;;;;;;;;7.60;81.20;;;;;;5089180;28;20345;-88
2022/04/02 06:49:14;;;;;;;;;;;7.60;80.80;;;;;;5080213;28;19916;-88
2022/04/02 06:51:40;;;;;;;;;;;7.60;81.10;;;;;;5075119;28;20346;-88
2022/04/02 06:54:06;;;;;;;;;;;7.60;81.50;;;;;;5074237;28;20385;-88
2022/04/02 06:56:31;;;;;;;;;;;7.70;82.50;;;;;;5073544;28;20370;-88
2022/04/02 06:58:57;;;;;;;;;;;7.70;80.90;;;;;;5072255;28;19960;-88
2022/04/02 07:01:22;;;;;;;;;;;7.70;81.00;;;;;;5071780;28;20254;-88
2022/04/02 07:03:48;;;;;;;;;;;7.80;80.70;;;;;;5072493;28;19913;-88
2022/04/02 07:06:13;;;;;;;;;;;7.80;80.90;;;;;;5074259;28;19912;-88
2022/04/02 07:08:39;;;;;;;;;;;7.80;80.80;;;;;;5073337;28;20316;-89
2022/04/02 07:11:05;;;;;;;;;;;7.90;82.10;;;;;;5073754;28;20001;-89
2022/04/02 07:13:31;;;;;;;;;;;8.00;82.60;;;;;;5072857;28;19951;-89
2022/04/02 07:15:57;;;;;;;;;;;8.00;82.00;;;;;;5075007;28;19917;-89
2022/04/02 07:18:23;;;;;;;;;;;8.00;80.80;;;;;;5073893;28;19938;-88
2022/04/02 07:20:51;;;;;;;;;;;8.00;80.40;;;;;;5073442;28;19920;-88
2022/04/02 07:23:17;;;;;;;;;;;8.10;81.20;;;;;;5069893;28;19912;-88
2022/04/02 07:25:43;;;;;;;;;;;8.10;79.40;;;;;;5070839;28;19913;-88
2022/04/02 07:28:09;;;;;;;;;;;8.10;79.10;;;;;;5072754;28;19912;-89
2022/04/02 07:30:36;;;;;;;;;;;8.20;79.40;;;;;;5073395;28;20330;-88
2022/04/02 07:33:02;;;;;;;;;;;8.30;78.60;;;;;;5072254;28;20375;-88
2022/04/02 07:35:32;;;;;;;;;;;8.40;78.30;;;;;;5073162;28;19916;-88
2022/04/02 07:37:58;;;;;;;;;;;8.50;79.00;;;;;;5069446;28;19920;-88
2022/04/02 07:40:29;;;;;;;;;;;8.60;78.50;;;;;;5073001;28;19913;-88
2022/04/02 07:43:02;;;;;;;;;;;8.60;78.70;;;;;;5071971;28;19913;-88
2022/04/02 07:45:30;;;;;;;;;;;8.80;77.20;;;;;;5070293;28;19920;-88
2022/04/02 07:47:56;;;;;;;;;;;8.90;77.40;;;;;;5073144;28;19963;-88
2022/04/02 07:50:23;;;;;;;;;;;9.00;77.30;;;;;;5073438;28;19912;-88
2022/04/02 07:52:50;;;;;;;;;;;9.00;76.00;;;;;;5073314;28;19919;-89
2022/04/02 07:55:17;;;;;;;;;;;9.10;74.30;;;;;;5072660;28;19916;-89
2022/04/02 07:57:44;;;;;;;;;;;9.10;75.40;;;;;;5071473;28;19925;-88
2022/04/02 08:00:10;;;;;;;;;;;9.10;75.00;;;;;;5071628;28;19913;-88
2022/04/02 08:02:37;;;;;;;;;;;9.00;76.90;;;;;;5071421;28;19995;-88
2022/04/02 08:05:03;;;;;;;;;;;9.00;76.80;;;;;;5075048;28;19912;-89
2022/04/02 08:07:30;;;;;;;;;;;9.00;77.20;;;;;;5073232;28;20401;-89
2022/04/02 08:09:56;;;;;;;;;;;9.10;76.30;;;;;;5067489;28;19916;-88
2022/04/02 08:12:22;;;;;;;;;;;9.00;75.60;;;;;;5069528;28;20375;-88
2022/04/02 08:14:49;;;;;;;;;;;9.10;76.60;;;;;;5071496;28;20413;-88
2022/04/02 08:17:15;;;;;;;;;;;9.10;73.30;;;;;;5069812;28;19917;-88
2022/04/02 08:19:41;;;;;;;;;;;9.00;67.80;;;;;;5073227;28;19913;-88
2022/04/02 08:22:06;;;;;;;;;;;9.00;72.10;;;;;;5073378;28;19924;-88
2022/04/02 08:24:32;;;;;;;;;;;9.10;68.00;;;;;;5073560;28;19923;-89
2022/04/02 08:27:02;;;;;;;;;;;9.10;67.70;;;;;;5073295;28;19962;-88
2022/04/02 08:29:45;;;;;;;;;;;9.20;69.00;;;;;;5072219;28;19912;-88
2022/04/02 08:32:24;;;;;;;;;;;9.20;69.00;;;;;;5071771;28;19912;-88
2022/04/02 08:34:58;;;;;;;;;;;9.20;68.80;;;;;;5071407;28;19966;-88
2022/04/02 08:37:30;;;;;;;;;;;9.20;72.00;;;;;;5074428;28;19986;-88
2022/04/02 08:39:55;;;;;;;;;;;9.20;70.90;;;;;;5071168;28;19917;-88
2022/04/02 08:42:21;;;;;;;;;;;9.10;68.50;;;;;;5076837;28;19920;-88
2022/04/02 08:44:49;;;;;;;;;;;9.20;70.20;;;;;;5072046;28;20492;-88
2022/04/02 08:47:30;;;;;;;;;;;9.30;70.60;;;;;;5073542;28;19920;-88
2022/04/02 08:49:55;;;;;;;;;;;9.20;64.50;;;;;;5069726;28;20396;-88
2022/04/02 08:52:22;;;;;;;;;;;9.30;67.20;;;;;;5073328;28;19913;-89
2022/04/02 08:54:54;;;;;;;;;;;9.40;66.10;;;;;;5075491;28;19973;-89
2022/04/02 08:57:28;;;;;;;;;;;9.50;64.60;;;;;;5070740;28;19916;-88
2022/04/02 09:00:04;;;;;;;;;;;9.50;63.70;;;;;;5068384;28;20012;-88
2022/04/02 09:02:32;;;;;;;;;;;9.50;63.70;;;;;;5072044;28;20373;-88
2022/04/02 09:05:01;;;;;;;;;;;9.60;64.90;;;;;;5073017;28;19912;-89
2022/04/02 09:07:30;;;;;;;;;;;9.60;64.20;;;;;;5070612;28;19939;-89
2022/04/02 09:09:55;;;;;;;;;;;9.70;64.90;;;;;;5069435;28;19916;-87
2022/04/02 09:12:34;;;;;;;;;;;9.70;63.20;;;;;;5071741;28;20278;-89
2022/04/02 09:15:00;;;;;;;;;;;9.80;65.50;;;;;;5071040;28;19912;-88
2022/04/02 09:17:35;;;;;;;;;;;10.00;65.40;;;;;;5070415;28;19920;-89
2022/04/02 09:20:04;;;;;;;;;;;10.10;64.50;;;;;;5070105;28;19912;-88
2022/04/02 09:22:44;;;;;;;;;;;10.20;64.10;;;;;;5070902;28;19920;-88
2022/04/02 09:25:28;;;;;;;;;;;10.40;64.90;;;;;;5070108;28;19965;-88
2022/04/02 09:28:10;;;;;;;;;;;10.50;63.80;;;;;;5070073;28;19923;-88
2022/04/02 09:30:54;;;;;;;;;;;10.60;60.90;;;;;;5072750;28;19962;-88
2022/04/02 09:33:40;;;;;;;;;;;10.60;61.30;;;;;;5072451;28;19912;-88
2022/04/02 09:36:12;;;;;;;;;;;10.50;60.90;;;;;;5072326;28;19920;-89
2022/04/02 09:38:43;;;;;;;;;;;10.40;58.40;;;;;;5076968;28;19920;-88
2022/04/02 09:41:08;;;;;;;;;;;10.60;62.00;;;;;;5086685;28;19943;-88
2022/04/02 09:43:38;;;;;;;;;;;10.60;63.70;;;;;;5072484;28;19958;-88
2022/04/02 09:46:19;;;;;;;;;;;10.80;63.90;;;;;;5072296;28;20370;-88
2022/04/02 09:49:05;;;;;;;;;;;11.10;64.70;;;;;;5072695;28;19962;-88
2022/04/02 09:51:34;;;;;;;;;;;11.30;60.40;;;;;;5071238;28;19913;-88
2022/04/02 09:54:04;;;;;;;;;;;11.40;62.00;;;;;;5065119;28;20379;-88
2022/04/02 09:56:34;;;;;;;;;;;11.60;63.10;;;;;;5072754;28;19909;-88
2022/04/02 09:59:06;;;;;;;;;;;11.40;60.00;;;;;;5072457;28;19912;-88
2022/04/02 10:02:57;;;;;;;;;;;11.40;59.60;;;;;;5090490;28;20370;-88
2022/04/02 10:05:31;;;;;;;;;;;11.40;59.40;;;;;;5090682;28;19974;-89
2022/04/02 10:08:04;;;;;;;;;;;11.40;61.40;;;;;;5091027;28;19915;-89
2022/04/02 10:10:30;;;;;;;;;;;11.60;60.60;;;;;;5089668;28;20525;-89
2022/04/02 10:12:56;;;;;;;;;;;11.90;59.00;;;;;;5085046;28;19913;-89
2022/04/02 10:15:22;;;;;;;;;;;12.00;59.60;;;;;;5069089;28;20044;-89
2022/04/02 10:17:51;;;;;;;;;;;12.20;60.70;;;;;;5070426;28;19970;-89
2022/04/02 10:20:18;;;;;;;;;;;12.40;60.20;;;;;;5070184;28;19920;-89
2022/04/02 10:22:45;;;;;;;;;;;12.50;59.80;;;;;;5068913;28;20281;-89
2022/04/02 10:25:12;;;;;;;;;;;12.60;60.20;;;;;;5070094;28;20363;-89
2022/04/02 10:27:38;;;;;;;;;;;12.60;56.30;;;;;;5070102;28;19954;-88
2022/04/02 10:30:05;;;;;;;;;;;12.60;56.30;;;;;;5069972;28;19909;-89
2022/04/02 10:32:43;;;;;;;;;;;12.80;55.70;;;;;;5069875;28;19916;-88
2022/04/02 10:35:11;;;;;;;;;;;12.90;54.90;;;;;;5070162;28;19978;-89
2022/04/02 10:37:43;;;;;;;;;;;13.10;51.70;;;;;;5069862;28;20011;-90
2022/04/02 10:40:12;;;;;;;;;;;13.30;54.60;;;;;;5069733;28;19924;-89
2022/04/02 10:42:42;;;;;;;;;;;13.40;55.40;;;;;;5069743;28;19909;-89
2022/04/02 10:45:11;;;;;;;;;;;13.50;56.50;;;;;;5069753;28;19916;-89
2022/04/02 10:47:46;;;;;;;;;;;13.80;53.60;;;;;;5085619;28;19955;-89
2022/04/02 10:50:14;;;;;;;;;;;14.00;53.50;;;;;;5089632;28;20162;-89
2022/04/02 10:52:40;;;;;;;;;;;14.10;51.30;;;;;;5089801;28;19947;-89
2022/04/02 10:55:06;;;;;;;;;;;14.40;49.50;;;;;;5089746;28;19913;-88
2022/04/02 10:57:32;;;;;;;;;;;14.40;53.60;;;;;;5089790;28;19969;-89
2022/04/02 11:00:07;;;;;;;;;;;14.50;54.70;;;;;;5073426;28;20007;-89
2022/04/02 11:02:41;;;;;;;;;;;14.80;52.50;;;;;;5069310;28;19924;-89
2022/04/02 11:05:07;;;;;;;;;;;14.90;52.40;;;;;;5069230;28;19913;-89
2022/04/02 11:07:40;;;;;;;;;;;14.90;53.80;;;;;;5069218;28;19992;-89
2022/04/02 11:10:06;;;;;;;;;;;14.90;54.00;;;;;;5069062;28;20374;-89
2022/04/02 11:12:33;;;;;;;;;;;14.90;53.50;;;;;;5063591;28;19923;-89
2022/04/02 11:15:17;;;;;;;;;;;15.10;51.80;;;;;;5056170;28;20240;-89
2022/04/02 11:17:44;;;;;;;;;;;15.10;52.50;;;;;;5072572;28;20009;-89
2022/04/02 11:20:14;;;;;;;;;;;15.20;51.10;;;;;;5075744;28;19908;-89
2022/04/02 11:22:40;;;;;;;;;;;15.50;50.30;;;;;;5075838;28;19908;-89
2022/04/02 11:25:07;;;;;;;;;;;15.60;49.30;;;;;;5075743;28;20415;-89
2022/04/02 11:27:37;;;;;;;;;;;15.70;49.40;;;;;;5057584;28;19913;-89
2022/04/02 11:30:05;;;;;;;;;;;15.50;48.80;;;;;;5055600;28;19915;-89
2022/04/02 11:32:37;;;;;;;;;;;15.30;51.50;;;;;;5055504;28;19952;-89
2022/04/02 11:35:06;;;;;;;;;;;15.30;49.80;;;;;;5056837;28;20075;-89
2022/04/02 11:37:33;;;;;;;;;;;15.30;48.50;;;;;;5075589;28;20362;-89
2022/04/02 11:40:03;;;;;;;;;;;15.20;51.60;;;;;;5075452;28;20373;-89
2022/04/02 11:42:31;;;;;;;;;;;15.20;48.50;;;;;;5075443;28;20003;-89
2022/04/02 11:44:58;;;;;;;;;;;15.20;46.60;;;;;;5075461;28;20007;-89
2022/04/02 11:47:28;;;;;;;;;;;15.00;49.80;;;;;;5075400;28;19912;-89
2022/04/02 11:49:55;;;;;;;;;;;14.80;51.40;;;;;;5075385;28;19909;-89
2022/04/02 11:52:20;;;;;;;;;;;14.60;49.30;;;;;;5075224;28;19908;-89
2022/04/02 11:54:49;;;;;;;;;;;14.80;49.90;;;;;;5075253;28;19935;-89
2022/04/02 11:57:15;;;;;;;;;;;15.00;51.50;;;;;;5075206;28;19915;-89
2022/04/02 11:59:51;;;;;;;;;;;15.30;48.90;;;;;;5075074;28;20008;-89
2022/04/02 12:02:35;;;;;;;;;;;15.40;47.80;;;;;;5074854;28;19978;-89
2022/04/02 12:05:01;;;;;;;;;;;15.40;47.90;;;;;;5074623;28;19915;-90
2022/04/02 12:07:37;;;;;;;;;;;15.20;48.40;;;;;;5073647;28;19927;-90
2022/04/02 12:10:03;;;;;;;;;;;15.10;49.10;;;;;;5074856;28;19958;-89
2022/04/02 12:12:28;;;;;;;;;;;14.70;51.60;;;;;;5074860;28;19909;-89
2022/04/02 12:14:58;;;;;;;;;;;14.50;47.40;;;;;;5074845;28;19995;-90
2022/04/02 12:17:31;;;;;;;;;;;14.60;50.30;;;;;;5075007;28;19962;-90
2022/04/02 12:19:57;;;;;;;;;;;14.40;48.90;;;;;;5074945;28;19919;-89
2022/04/02 12:22:25;;;;;;;;;;;14.50;49.40;;;;;;5074604;28;19912;-90
2022/04/02 12:24:52;;;;;;;;;;;14.70;53.00;;;;;;5073639;28;19908;-90
2022/04/02 12:27:18;;;;;;;;;;;14.90;50.50;;;;;;5074201;28;19912;-90
2022/04/02 12:29:48;;;;;;;;;;;15.00;48.50;;;;;;5052685;28;20015;-90
2022/04/02 12:32:34;;;;;;;;;;;15.20;47.70;;;;;;5054408;28;19909;-91
2022/04/02 12:35:04;;;;;;;;;;;15.40;45.50;;;;;;5052680;28;19915;-90
2022/04/02 12:37:40;;;;;;;;;;;15.80;46.00;;;;;;5054409;28;19909;-90
2022/04/02 12:40:16;;;;;;;;;;;15.90;45.40;;;;;;5054373;28;19935;-90
2022/04/02 12:42:44;;;;;;;;;;;16.20;44.60;;;;;;5054397;28;19913;-91
2022/04/02 12:45:11;;;;;;;;;;;16.60;44.90;;;;;;5054509;28;19964;-90
2022/04/02 12:47:37;;;;;;;;;;;16.60;46.00;;;;;;5054232;28;19913;-90
2022/04/02 12:50:10;;;;;;;;;;;16.20;46.60;;;;;;5054179;28;20011;-90
2022/04/02 12:52:46;;;;;;;;;;;16.00;48.90;;;;;;5054296;28;19915;-90
2022/04/02 12:55:22;;;;;;;;;;;15.50;51.50;;;;;;5052807;28;19931;-90
2022/04/02 12:58:05;;;;;;;;;;;15.20;52.00;;;;;;5054213;28;20001;-91
2022/04/02 13:00:36;;;;;;;;;;;14.90;52.90;;;;;;5032589;28;19944;-90
2022/04/02 13:03:02;;;;;;;;;;;14.70;53.90;;;;;;5034032;28;20394;-90
2022/04/02 13:05:46;;;;;;;;;;;14.60;54.00;;;;;;5034557;28;19909;-90
2022/04/02 13:08:26;;;;;;;;;;;14.60;53.80;;;;;;5032702;28;19956;-90
2022/04/02 13:10:53;;;;;;;;;;;14.60;54.30;;;;;;5033814;28;19948;-90
2022/04/02 13:13:31;;;;;;;;;;;14.50;54.60;;;;;;5033826;28;19909;-90
2022/04/02 13:15:57;;;;;;;;;;;14.30;54.80;;;;;;5033812;28;19932;-90
2022/04/02 13:21:09;;;;;;;;;;;13.50;58.70;;;;;;5069427;28;19979;-90
2022/04/02 13:24:07;;;;;;;;;;;13.50;58.90;;;;;;5073526;28;19909;-90
2022/04/02 13:26:34;;;;;;;;;;;13.60;59.60;;;;;;5061409;28;19912;-90
2022/04/02 13:29:08;;;;;;;;;;;13.70;59.20;;;;;;5073724;28;19958;-90
2022/04/02 13:31:39;;;;;;;;;;;13.70;60.40;;;;;;5073313;28;19908;-90
2022/04/02 13:34:16;;;;;;;;;;;13.70;61.10;;;;;;5073468;28;19924;-90
2022/04/02 13:37:02;;;;;;;;;;;13.30;59.20;;;;;;5073200;28;19931;-90
2022/04/02 13:39:28;;;;;;;;;;;13.00;61.10;;;;;;5071445;28;19998;-91
2022/04/02 13:41:57;;;;;;;;;;;12.80;61.90;;;;;;5073243;28;19979;-90
2022/04/02 13:44:23;;;;;;;;;;;12.60;63.10;;;;;;5073323;28;20278;-89
2022/04/02 13:46:52;;;;;;;;;;;12.40;63.90;;;;;;5073250;28;19939;-89
2022/04/02 13:49:26;;;;;;;;;;;12.20;64.20;;;;;;5070894;28;19919;-89
2022/04/02 13:52:02;;;;;;;;;;;12.10;64.60;;;;;;5053182;28;19916;-90
2022/04/02 13:54:35;;;;;;;;;;;12.20;65.30;;;;;;5053119;28;19913;-90
2022/04/02 13:57:10;;;;;;;;;;;12.10;65.20;;;;;;5053080;28;19909;-90
2022/04/02 13:59:55;;;;;;;;;;;12.00;64.90;;;;;;5053066;28;19909;-89
2022/04/02 14:02:28;;;;;;;;;;;11.90;65.10;;;;;;5052627;28;19956;-90
2022/04/02 14:05:13;;;;;;;;;;;11.90;65.80;;;;;;5053019;28;19909;-90
2022/04/02 14:07:51;;;;;;;;;;;11.90;65.00;;;;;;5053037;28;19917;-90
2022/04/02 14:10:18;;;;;;;;;;;11.80;65.60;;;;;;5052942;28;19952;-90
2022/04/02 14:12:43;;;;;;;;;;;11.60;66.40;;;;;;5051791;28;19909;-89
2022/04/02 14:15:10;;;;;;;;;;;11.50;66.90;;;;;;5052923;28;20000;-90
2022/04/02 14:17:39;;;;;;;;;;;11.50;66.90;;;;;;5052989;28;19909;-89
2022/04/02 14:20:12;;;;;;;;;;;11.40;68.90;;;;;;5060896;28;19999;-90
2022/04/02 14:22:56;;;;;;;;;;;11.30;70.50;;;;;;5072750;28;19966;-89
2022/04/02 14:25:24;;;;;;;;;;;11.20;70.20;;;;;;5065866;28;19948;-89
2022/04/02 14:28:10;;;;;;;;;;;11.10;68.70;;;;;;5052799;28;19913;-90
2022/04/02 14:30:54;;;;;;;;;;;11.10;68.80;;;;;;5051416;28;19909;-89
2022/04/02 14:33:38;;;;;;;;;;;11.10;69.60;;;;;;5052688;28;19909;-89
2022/04/02 14:36:24;;;;;;;;;;;10.90;70.80;;;;;;5052752;28;20367;-90
2022/04/02 14:39:08;;;;;;;;;;;10.80;70.20;;;;;;5052665;28;19958;-89
2022/04/02 14:41:34;;;;;;;;;;;10.80;71.50;;;;;;5052566;28;19920;-89
2022/04/02 14:43:59;;;;;;;;;;;10.80;71.10;;;;;;5052635;28;19909;-90
2022/04/02 14:46:38;;;;;;;;;;;10.80;71.10;;;;;;5052859;28;19913;-89
2022/04/02 14:49:19;;;;;;;;;;;10.80;70.10;;;;;;5055800;28;20043;-89